createdAt,value
2022-11-19T00:00:19.380Z,60.00
2022-11-19T00:02:50.837Z,52.60
2022-11-19T00:05:19.245Z,46.20
2022-11-19T00:07:48.748Z,55.58
2022-11-19T00:10:18.714Z,71.22
2022-11-19T00:12:56.433Z,65.43
2022-11-19T00:15:26.319Z,67.20
2022-11-19T00:17:58.359Z,54.03
2022-11-19T00:20:28.001Z,53.95
2022-11-19T00:22:58.513Z,57.83
2022-11-19T00:25:32.247Z,65.07
2022-11-19T00:28:00.954Z,68.00
2022-11-19T00:33:20.141Z,53.30
2022-11-19T00:35:49.992Z,60.25
2022-11-19T00:38:19.488Z,58.75
2022-11-19T00:40:49.006Z,54.00
2022-11-19T00:43:35.811Z,51.15
2022-11-19T00:46:04.216Z,65.97
2022-11-19T00:48:34.274Z,49.95
2022-11-19T00:51:05.386Z,60.13
2022-11-19T00:53:33.682Z,56.95
2022-11-19T00:56:02.892Z,60.38
2022-11-19T00:58:31.379Z,52.08
2022-11-19T01:01:00.968Z,48.28
2022-11-19T01:03:30.782Z,54.97
2022-11-19T01:06:01.922Z,63.88
2022-11-19T01:08:31.065Z,52.30
2022-11-19T01:11:08.125Z,55.78
2022-11-19T01:13:37.315Z,59.35
2022-11-19T01:16:11.435Z,61.35
2022-11-19T01:18:41.445Z,59.22
2022-11-19T01:21:13.395Z,56.50
2022-11-19T01:23:43.454Z,51.97
2022-11-19T01:26:14.197Z,54.08
2022-11-19T01:28:43.528Z,62.58
2022-11-19T01:31:17.278Z,63.60
2022-11-19T01:33:47.704Z,51.95
2022-11-19T01:36:22.154Z,56.15
2022-11-19T01:38:52.260Z,54.42
2022-11-19T01:41:22.133Z,55.22
2022-11-19T01:43:53.275Z,53.83
2022-11-19T01:46:25.893Z,57.42
2022-11-19T01:48:59.822Z,61.67
2022-11-19T01:51:37.798Z,64.88
2022-11-19T01:54:16.716Z,69.57
2022-11-19T01:56:47.448Z,68.57
2022-11-19T01:59:19.913Z,70.07
2022-11-19T02:01:48.580Z,63.75
2022-11-19T02:04:21.886Z,48.22
2022-11-19T02:06:53.435Z,54.45
2022-11-19T02:09:22.287Z,51.25
2022-11-19T02:12:19.735Z,55.65
2022-11-19T02:15:17.874Z,61.33
2022-11-19T02:18:15.463Z,56.85
2022-11-19T02:21:13.966Z,45.47
2022-11-19T02:24:22.255Z,60.42
2022-11-19T02:27:42.517Z,57.15
2022-11-19T02:30:17.696Z,50.13
2022-11-19T02:33:00.339Z,54.28
2022-11-19T02:35:50.421Z,47.22
2022-11-19T02:38:33.943Z,51.92
2022-11-19T02:41:30.226Z,66.00
2022-11-19T02:44:19.627Z,57.90
2022-11-19T02:46:55.591Z,49.65
2022-11-19T02:49:32.745Z,48.75
2022-11-19T02:52:02.715Z,47.00
2022-11-19T02:54:30.957Z,49.88
2022-11-19T02:57:00.493Z,52.10
2022-11-19T02:59:51.529Z,48.30
2022-11-19T03:02:43.807Z,55.08
2022-11-19T03:05:20.161Z,44.22
2022-11-19T03:07:49.016Z,49.63
2022-11-19T03:10:22.300Z,47.40
2022-11-19T03:12:56.045Z,48.95
2022-11-19T03:15:50.607Z,45.67
2022-11-19T03:18:26.347Z,48.97
2022-11-19T03:21:06.107Z,54.80
2022-11-19T03:23:41.260Z,47.10
2022-11-19T03:26:22.097Z,48.72
2022-11-19T03:28:53.954Z,48.97
2022-11-19T03:31:26.200Z,52.78
2022-11-19T03:34:00.492Z,49.03
2022-11-19T03:36:35.559Z,43.47
2022-11-19T03:39:11.547Z,48.03
2022-11-19T03:41:42.741Z,44.88
2022-11-19T03:44:19.519Z,48.28
2022-11-19T03:46:54.786Z,48.42
2022-11-19T03:49:31.660Z,46.83
2022-11-19T03:52:09.451Z,52.92
2022-11-19T03:54:38.919Z,46.88
2022-11-19T03:57:11.904Z,50.65
2022-11-19T03:59:40.266Z,43.42
2022-11-19T04:02:11.232Z,45.47
2022-11-19T04:04:42.681Z,43.13
2022-11-19T04:07:16.940Z,41.45
2022-11-19T04:09:45.664Z,45.45
2022-11-19T04:12:18.617Z,45.03
2022-11-19T04:14:48.604Z,44.05
2022-11-19T04:17:21.470Z,43.33
2022-11-19T04:19:52.324Z,43.70
2022-11-19T04:22:21.819Z,44.20
2022-11-19T04:24:50.509Z,41.92
2022-11-19T04:27:21.204Z,46.03
2022-11-19T04:29:51.014Z,46.17
2022-11-19T04:32:21.244Z,43.35
2022-11-19T04:34:52.097Z,43.92
2022-11-19T04:37:21.609Z,44.38
2022-11-19T04:39:49.938Z,44.33
2022-11-19T04:42:19.424Z,47.22
2022-11-19T04:44:48.977Z,45.95
2022-11-19T04:47:18.527Z,44.92
2022-11-19T04:49:46.811Z,45.97
2022-11-19T04:52:16.827Z,41.42
2022-11-19T04:54:45.398Z,43.47
2022-11-19T04:57:15.205Z,43.47
2022-11-19T04:59:43.768Z,44.42
2022-11-19T05:02:12.385Z,42.13
2022-11-19T05:04:42.213Z,41.45
2022-11-19T05:07:11.775Z,47.20
2022-11-19T05:09:41.407Z,44.97
2022-11-19T05:12:12.118Z,43.05
2022-11-19T05:14:40.824Z,45.22
2022-11-19T05:17:10.330Z,47.55
2022-11-19T05:19:39.790Z,46.40
2022-11-19T05:22:09.315Z,49.22
2022-11-19T05:24:37.599Z,44.33
2022-11-19T05:27:08.498Z,53.78
2022-11-19T05:29:36.749Z,65.82
2022-11-19T05:32:06.636Z,49.65
2022-11-19T05:34:36.162Z,47.53
2022-11-19T05:37:04.464Z,49.83
2022-11-19T05:39:32.744Z,46.28
2022-11-19T05:42:02.290Z,46.08
2022-11-19T05:44:33.128Z,45.60
2022-11-19T05:47:03.760Z,49.25
2022-11-19T05:49:32.050Z,47.28
2022-11-19T05:52:00.435Z,51.53
2022-11-19T05:54:29.155Z,48.85
2022-11-19T05:56:59.944Z,45.83
2022-11-19T05:59:28.840Z,42.33
2022-11-19T06:02:00.032Z,43.33
2022-11-19T06:04:28.353Z,50.10
2022-11-19T06:06:57.931Z,45.15
2022-11-19T06:09:26.244Z,45.40
2022-11-19T06:11:54.627Z,45.55
2022-11-19T06:14:28.102Z,44.22
2022-11-19T06:17:00.120Z,47.25
2022-11-19T06:19:29.619Z,45.72
2022-11-19T06:22:00.650Z,44.70
2022-11-19T06:24:29.945Z,43.35
2022-11-19T06:26:58.232Z,46.92
2022-11-19T06:29:27.929Z,43.95
2022-11-19T06:31:57.481Z,51.65
2022-11-19T06:34:27.177Z,46.70
2022-11-19T06:36:55.561Z,51.08
2022-11-19T06:39:23.914Z,49.35
2022-11-19T06:41:53.493Z,46.92
2022-11-19T06:44:21.789Z,45.40
2022-11-19T06:46:51.358Z,43.88
2022-11-19T06:49:20.500Z,43.78
2022-11-19T06:51:51.550Z,44.55
2022-11-19T06:54:19.993Z,44.28
2022-11-19T06:56:49.473Z,45.88
2022-11-19T06:59:19.328Z,42.75
2022-11-19T07:01:48.112Z,44.95
2022-11-19T07:04:17.724Z,44.97
2022-11-19T07:06:47.555Z,47.40
2022-11-19T07:09:19.230Z,42.40
2022-11-19T07:11:49.082Z,48.63
2022-11-19T07:14:18.633Z,42.88
2022-11-19T07:16:48.593Z,45.90
2022-11-19T07:19:17.587Z,46.85
2022-11-19T07:21:48.891Z,44.30
2022-11-19T07:24:19.219Z,46.42
2022-11-19T07:26:49.884Z,44.72
2022-11-19T07:29:18.890Z,44.58
2022-11-19T07:31:51.806Z,47.47
2022-11-19T07:34:22.050Z,51.38
2022-11-19T07:36:51.964Z,49.05
2022-11-19T07:39:23.377Z,42.38
2022-11-19T07:42:11.912Z,43.90
2022-11-19T07:44:42.327Z,49.28
2022-11-19T07:47:12.214Z,42.10
2022-11-19T07:49:40.838Z,46.30
2022-11-19T07:52:09.522Z,52.17
2022-11-19T07:54:40.342Z,47.03
2022-11-19T07:57:08.921Z,45.88
2022-11-19T07:59:38.493Z,43.15
2022-11-19T08:02:07.260Z,48.20
2022-11-19T08:04:36.755Z,44.60
2022-11-19T08:07:06.589Z,49.67
2022-11-19T08:09:36.569Z,43.83
2022-11-19T08:12:09.304Z,46.17
2022-11-19T08:14:37.592Z,45.03
2022-11-19T08:17:24.673Z,44.78
2022-11-19T08:19:53.289Z,48.13
2022-11-19T08:22:21.938Z,46.42
2022-11-19T08:24:51.552Z,41.78
2022-11-19T08:27:22.469Z,48.50
2022-11-19T08:29:52.285Z,47.80
2022-11-19T08:32:21.914Z,45.72
2022-11-19T08:34:51.491Z,47.83
2022-11-19T08:37:21.323Z,48.70
2022-11-19T08:39:49.943Z,44.15
2022-11-19T08:42:44.881Z,47.15
2022-11-19T08:45:19.570Z,49.03
2022-11-19T08:47:50.368Z,46.67
2022-11-19T08:50:21.194Z,44.75
2022-11-19T08:52:57.648Z,46.58
2022-11-19T08:55:29.727Z,46.47
2022-11-19T08:58:03.155Z,41.58
2022-11-19T09:00:32.826Z,44.33
2022-11-19T09:03:03.609Z,47.10
2022-11-19T09:05:33.098Z,44.35
2022-11-19T09:08:01.768Z,47.33
2022-11-19T09:10:31.482Z,45.60
2022-11-19T09:13:05.705Z,46.53
2022-11-19T09:15:34.672Z,44.85
2022-11-19T09:18:04.161Z,45.58
2022-11-19T09:20:33.668Z,44.30
2022-11-19T09:23:04.493Z,46.00
2022-11-19T09:25:33.029Z,42.60
2022-11-19T09:28:04.322Z,44.53
2022-11-19T09:30:33.816Z,41.20
2022-11-19T09:33:02.273Z,44.38
2022-11-19T09:35:31.841Z,44.92
2022-11-19T09:38:01.689Z,44.20
2022-11-19T09:40:31.607Z,46.00
2022-11-19T09:43:14.928Z,46.38
2022-11-19T09:45:58.116Z,44.10
2022-11-19T09:48:36.199Z,45.35
2022-11-19T09:51:12.381Z,48.13
2022-11-19T09:53:49.748Z,42.28
2022-11-19T09:56:28.697Z,48.90
2022-11-19T09:59:01.167Z,48.20
2022-11-19T10:01:30.349Z,43.73
2022-11-19T10:04:02.094Z,45.40
2022-11-19T10:06:45.683Z,43.78
2022-11-19T10:12:21.469Z,46.70
2022-11-19T10:15:13.726Z,42.05
2022-11-19T10:17:57.445Z,41.33
2022-11-19T10:20:55.400Z,42.13
2022-11-19T10:23:31.934Z,42.33
2022-11-19T10:26:07.759Z,44.90
2022-11-19T10:28:41.818Z,46.55
2022-11-19T10:31:21.776Z,45.05
2022-11-19T10:33:55.286Z,48.65
2022-11-19T10:36:32.274Z,46.08
2022-11-19T10:39:08.964Z,47.75
2022-11-19T10:41:45.555Z,46.83
2022-11-19T10:44:40.296Z,43.70
2022-11-19T10:47:20.397Z,44.33
2022-11-19T10:49:54.405Z,43.75
2022-11-19T10:52:32.610Z,47.28
2022-11-19T10:55:17.176Z,45.15
2022-11-19T10:57:51.011Z,45.42
2022-11-19T11:00:20.155Z,45.75
2022-11-19T11:02:59.407Z,44.63
2022-11-19T11:05:28.185Z,42.63
2022-11-19T11:08:00.211Z,42.55
2022-11-19T11:10:35.119Z,41.25
2022-11-19T11:13:41.701Z,44.40
2022-11-19T11:16:14.833Z,44.50
2022-11-19T11:18:47.119Z,44.58
2022-11-19T11:24:04.375Z,43.40
2022-11-19T11:26:35.141Z,41.53
2022-11-19T11:29:09.809Z,43.00
2022-11-19T11:31:42.546Z,44.15
2022-11-19T11:34:31.296Z,44.63
2022-11-19T11:37:03.114Z,44.35
2022-11-19T11:39:38.762Z,42.33
2022-11-19T11:42:17.598Z,44.78
2022-11-19T11:44:52.979Z,42.63
2022-11-19T11:47:24.161Z,43.03
2022-11-19T11:50:06.355Z,42.38
2022-11-19T11:52:43.908Z,42.22
2022-11-19T11:55:33.670Z,44.10
2022-11-19T11:58:06.465Z,43.58
2022-11-19T12:00:39.165Z,42.03
2022-11-19T12:03:11.957Z,44.88
2022-11-19T12:05:54.361Z,40.78
2022-11-19T12:08:45.392Z,42.40
2022-11-19T12:11:23.907Z,42.72
2022-11-19T12:14:01.018Z,44.15
2022-11-19T12:16:46.100Z,43.63
2022-11-19T12:19:42.617Z,44.50
2022-11-19T12:22:23.401Z,46.50
2022-11-19T12:25:27.032Z,46.30
2022-11-19T12:28:26.573Z,43.42
2022-11-19T12:31:13.020Z,42.70
2022-11-19T12:34:02.470Z,41.10
2022-11-19T12:36:44.372Z,42.78
2022-11-19T12:39:34.107Z,43.35
2022-11-19T12:42:33.075Z,44.90
2022-11-19T12:45:16.618Z,45.65
2022-11-19T12:48:15.422Z,45.35
2022-11-19T12:50:53.335Z,43.40
2022-11-19T12:53:46.555Z,44.67
2022-11-19T12:56:30.373Z,46.03
2022-11-19T12:59:12.239Z,47.88
2022-11-19T13:01:45.046Z,44.50
2022-11-19T13:04:20.163Z,42.63
2022-11-19T13:06:58.191Z,45.03
2022-11-19T13:09:40.137Z,44.47
2022-11-19T13:12:16.233Z,45.67
2022-11-19T13:14:54.868Z,45.83
2022-11-19T13:17:30.004Z,45.45
2022-11-19T13:20:08.567Z,44.40
2022-11-19T13:22:42.104Z,41.80
2022-11-19T13:25:21.786Z,43.28
2022-11-19T13:27:56.397Z,43.72
2022-11-19T13:30:27.362Z,45.65
2022-11-19T13:33:04.875Z,45.67
2022-11-19T13:35:44.460Z,46.47
2022-11-19T13:38:22.198Z,46.33
2022-11-19T13:40:56.999Z,53.40
2022-11-19T13:43:45.244Z,49.28
2022-11-19T13:46:24.108Z,45.50
2022-11-19T13:49:02.868Z,43.95
2022-11-19T13:51:39.056Z,43.95
2022-11-19T13:54:09.996Z,43.70
2022-11-19T13:56:43.377Z,42.65
2022-11-19T13:59:38.036Z,43.25
2022-11-19T14:02:39.945Z,46.08
2022-11-19T14:05:43.199Z,45.60
2022-11-19T14:08:33.204Z,48.22
2022-11-19T14:11:17.705Z,45.80
2022-11-19T14:14:32.744Z,44.22
2022-11-19T14:17:32.181Z,44.17
2022-11-19T14:20:20.639Z,44.80
2022-11-19T14:23:29.083Z,45.75
2022-11-19T14:26:14.921Z,46.30
2022-11-19T14:28:48.281Z,44.35
2022-11-19T14:31:19.867Z,42.35
2022-11-19T14:34:05.492Z,45.60
2022-11-19T14:36:47.397Z,46.05
2022-11-19T14:39:25.879Z,46.88
2022-11-19T14:42:16.319Z,43.78
2022-11-19T14:44:47.868Z,43.40
2022-11-19T14:47:46.095Z,42.92
2022-11-19T14:50:29.141Z,44.30
2022-11-19T14:53:02.117Z,44.80
2022-11-19T14:55:31.950Z,44.47
2022-11-19T14:58:03.361Z,45.03
2022-11-19T15:00:36.534Z,45.85
2022-11-19T15:03:14.413Z,44.08
2022-11-19T15:05:47.412Z,46.10
2022-11-19T15:08:48.169Z,42.63
2022-11-19T15:11:18.740Z,48.13
2022-11-19T15:13:49.185Z,40.28
2022-11-19T15:16:22.236Z,41.58
2022-11-19T15:19:36.440Z,41.03
2022-11-19T15:22:32.286Z,43.63
2022-11-19T15:25:31.387Z,42.08
2022-11-19T15:28:17.715Z,41.00
2022-11-19T15:31:18.247Z,39.50
2022-11-19T15:34:11.826Z,41.03
2022-11-19T15:36:44.001Z,39.42
2022-11-19T15:42:01.293Z,41.83
2022-11-19T15:47:14.785Z,42.15
2022-11-19T15:49:46.692Z,41.25
2022-11-19T15:52:22.262Z,40.10
2022-11-19T15:54:53.090Z,40.72
2022-11-19T15:57:27.401Z,40.25
2022-11-19T16:00:02.118Z,41.72
2022-11-19T16:02:40.716Z,42.17
2022-11-19T16:05:23.790Z,42.30
2022-11-19T16:07:54.275Z,41.45
2022-11-19T16:10:30.693Z,40.67
2022-11-19T16:13:20.182Z,42.85
2022-11-19T16:16:09.360Z,40.88
2022-11-19T16:18:47.220Z,39.53
2022-11-19T16:21:24.813Z,44.53
2022-11-19T16:24:09.178Z,40.90
2022-11-19T16:26:41.024Z,40.40
2022-11-19T16:29:19.465Z,41.17
2022-11-19T16:31:50.767Z,39.53
2022-11-19T16:34:25.404Z,41.63
2022-11-19T16:36:55.549Z,40.70
2022-11-19T16:39:27.374Z,40.53
2022-11-19T16:42:19.024Z,41.47
2022-11-19T16:44:50.399Z,40.05
2022-11-19T16:47:28.137Z,41.05
2022-11-19T16:50:02.018Z,42.08
2022-11-19T16:52:43.663Z,41.35
2022-11-19T16:55:51.664Z,44.35
2022-11-19T16:58:28.682Z,43.03
2022-11-19T17:00:59.702Z,41.75
2022-11-19T17:03:36.398Z,41.97
2022-11-19T17:06:07.447Z,48.08
2022-11-19T17:08:38.949Z,40.20
2022-11-19T17:11:38.401Z,40.20
2022-11-19T17:14:19.276Z,41.00
2022-11-19T17:16:50.801Z,40.10
2022-11-19T17:19:28.560Z,40.97
2022-11-19T17:22:00.759Z,41.70
2022-11-19T17:24:35.998Z,40.67
2022-11-19T17:27:05.512Z,42.58
2022-11-19T17:29:35.572Z,41.38
2022-11-19T17:32:05.981Z,44.77
2022-11-19T17:34:47.372Z,42.63
2022-11-19T17:37:16.112Z,41.78
2022-11-19T17:39:46.877Z,39.97
2022-11-19T17:42:33.820Z,40.72
2022-11-19T17:45:10.555Z,41.60
2022-11-19T17:47:40.856Z,41.10
2022-11-19T17:50:09.893Z,39.72
2022-11-19T17:52:38.553Z,40.90
2022-11-19T17:55:17.658Z,41.35
2022-11-19T17:57:45.925Z,42.90
2022-11-19T18:00:17.670Z,40.42
2022-11-19T18:02:48.666Z,42.38
2022-11-19T18:05:22.106Z,40.40
2022-11-19T18:07:51.870Z,40.97
2022-11-19T18:10:20.199Z,40.85
2022-11-19T18:12:48.818Z,42.17
2022-11-19T18:15:23.006Z,41.35
2022-11-19T18:17:52.008Z,41.78
2022-11-19T18:20:23.077Z,42.53
2022-11-19T18:22:51.744Z,42.08
2022-11-19T18:25:23.066Z,40.42
2022-11-19T18:27:51.734Z,39.42
2022-11-19T18:30:22.592Z,41.45
2022-11-19T18:35:22.409Z,41.53
2022-11-19T18:37:50.705Z,41.50
2022-11-19T18:40:19.215Z,41.05
2022-11-19T18:43:01.960Z,41.63
2022-11-19T18:45:32.895Z,40.25
2022-11-19T18:48:01.150Z,41.40
2022-11-19T18:50:31.905Z,40.50
2022-11-19T18:53:00.138Z,43.83
2022-11-19T18:55:30.876Z,41.38
2022-11-19T18:57:59.105Z,41.08
2022-11-19T19:00:28.946Z,40.10
2022-11-19T19:03:01.141Z,40.88
2022-11-19T19:05:30.672Z,39.28
2022-11-19T19:07:59.481Z,40.05
2022-11-19T19:10:30.158Z,40.20
2022-11-19T19:12:58.636Z,40.22
2022-11-19T19:15:29.823Z,42.05
2022-11-19T19:18:03.672Z,45.28
2022-11-19T19:20:37.373Z,44.50
2022-11-19T19:23:06.958Z,41.47
2022-11-19T19:25:35.570Z,40.35
2022-11-19T19:28:05.644Z,40.95
2022-11-19T19:30:35.107Z,44.42
2022-11-19T19:33:05.349Z,42.05
2022-11-19T19:35:33.606Z,43.70
2022-11-19T19:38:03.505Z,40.30
2022-11-19T19:40:34.027Z,39.53
2022-11-19T19:43:06.064Z,40.75
2022-11-19T19:45:36.676Z,40.30
2022-11-19T19:48:07.160Z,39.03
2022-11-19T19:50:35.434Z,38.17
2022-11-19T19:53:03.920Z,39.10
2022-11-19T19:55:33.477Z,37.97
2022-11-19T19:58:05.319Z,41.10
2022-11-19T20:00:34.786Z,38.85
2022-11-19T20:03:05.846Z,44.22
2022-11-19T20:05:36.599Z,72.43
2022-11-19T20:08:05.675Z,40.70
2022-11-19T20:10:36.665Z,42.58
2022-11-19T20:13:24.263Z,41.15
2022-11-19T20:15:55.696Z,40.17
2022-11-19T20:18:26.224Z,43.83
2022-11-19T20:21:02.325Z,39.45
2022-11-19T20:23:31.394Z,40.42
2022-11-19T20:26:04.656Z,40.72
2022-11-19T20:31:06.544Z,42.85
2022-11-19T20:33:36.612Z,40.50
2022-11-19T20:36:09.266Z,40.25
2022-11-19T20:38:40.940Z,39.70
2022-11-19T20:41:33.806Z,49.35
2022-11-19T20:44:18.897Z,43.15
2022-11-19T20:46:51.383Z,41.78
2022-11-19T20:49:23.844Z,35.55
2022-11-19T20:51:55.586Z,39.97
2022-11-19T20:54:26.000Z,40.75
2022-11-19T20:56:57.521Z,40.15
2022-11-19T20:59:28.183Z,39.35
2022-11-19T21:01:59.064Z,40.30
2022-11-19T21:04:31.341Z,39.92
2022-11-19T21:07:02.113Z,39.92
2022-11-19T21:09:30.765Z,39.80
2022-11-19T21:12:01.489Z,40.00
2022-11-19T21:14:29.777Z,40.13
2022-11-19T21:16:59.233Z,41.63
2022-11-19T21:19:30.090Z,40.15
2022-11-19T21:22:00.750Z,40.00
2022-11-19T21:24:29.007Z,40.45
2022-11-19T21:26:57.301Z,47.17
2022-11-19T21:29:27.099Z,41.90
2022-11-19T21:31:56.552Z,41.08
2022-11-19T21:34:24.858Z,42.95
2022-11-19T21:36:54.908Z,49.17
2022-11-19T21:39:24.985Z,36.88
2022-11-19T21:41:55.798Z,40.70
2022-11-19T21:44:25.265Z,39.42
2022-11-19T21:46:55.992Z,46.83
2022-11-19T21:49:24.628Z,37.92
2022-11-19T21:51:56.285Z,39.20
2022-11-19T21:54:25.724Z,39.30
2022-11-19T21:56:56.387Z,39.88
2022-11-19T21:59:26.533Z,39.67
2022-11-19T22:01:55.098Z,41.65
2022-11-19T22:04:23.484Z,39.45
2022-11-19T22:06:54.288Z,38.75
2022-11-19T22:09:22.977Z,39.47
2022-11-19T22:11:52.608Z,39.10
2022-11-19T22:14:20.836Z,39.80
2022-11-19T22:16:52.851Z,39.70
2022-11-19T22:19:21.523Z,39.75
2022-11-19T22:21:51.404Z,40.60
2022-11-19T22:24:22.340Z,40.10
2022-11-19T22:26:51.854Z,41.35
2022-11-19T22:29:21.886Z,39.50
2022-11-19T22:31:51.614Z,40.03
2022-11-19T22:34:20.248Z,38.70
2022-11-19T22:36:49.783Z,38.13
2022-11-19T22:39:19.708Z,38.95
2022-11-19T22:41:49.726Z,42.72
2022-11-19T22:44:17.989Z,39.17
2022-11-19T22:46:47.490Z,38.92
2022-11-19T22:49:15.722Z,37.58
2022-11-19T22:51:46.523Z,38.35
2022-11-19T22:54:16.114Z,37.50
2022-11-19T22:56:46.954Z,39.13
2022-11-19T22:59:16.636Z,39.80
2022-11-19T23:01:46.111Z,40.10
2022-11-19T23:04:16.325Z,39.33
2022-11-19T23:06:44.960Z,47.95
2022-11-19T23:09:13.194Z,43.55
2022-11-19T23:12:02.001Z,38.20
2022-11-19T23:14:31.873Z,38.45
2022-11-19T23:17:01.340Z,39.08
2022-11-19T23:19:30.814Z,37.53
2022-11-19T23:22:01.523Z,39.47
2022-11-19T23:24:29.954Z,38.92
2022-11-19T23:26:59.756Z,38.95
2022-11-19T23:29:27.993Z,38.90
2022-11-19T23:31:58.891Z,38.90
2022-11-19T23:34:27.176Z,38.60
2022-11-19T23:36:57.848Z,38.88
2022-11-19T23:39:26.097Z,38.25
2022-11-19T23:41:54.528Z,37.88
2022-11-19T23:44:24.028Z,38.75
2022-11-19T23:46:53.556Z,37.78
2022-11-19T23:49:23.549Z,37.40
2022-11-19T23:51:52.244Z,38.35
2022-11-19T23:54:20.642Z,39.00
2022-11-19T23:56:51.323Z,37.78
2022-11-19T23:59:23.096Z,38.65
